Terminal Aerodrome Forecast
Issued by NWS Miami, FL

Home | Current Version | Previous Version | Text Only | Print | Product List | Glossary On
Versions: 1 2 3 4 5 6 7 8 9 10 11 12 13 14 15 16 17 18 19 20 21 22 23 24 25 26 27 28 29 30 31 32 33 34 35 36 37 38 39 40 41 42 43 44 45 46 47 48
731
FTUS42 KMFL 060540
TAFFLL
TAF
KFLL 060540Z 0606/0706 06007KT P6SM SCT030 BKN040 OVC060
     FM060900 06008KT P6SM SCT020 OVC040
     FM061800 04007KT P6SM VCSH SCT025 OVC035
     FM070000 03006KT P6SM VCSH SCT015 OVC025
     FM070200 32006KT P6SM VCSH SCT010 BKN015 OVC025=

USA.gov is the U.S. government's official web portal to all federal, state and local government web resources and services.